Time;durP1;ratioP1;P1;durP2;ratioP2;P2;SDS_P1;SDS_P2;PMS_P1;PMS_P2;Temp;Humidity;BMP_temperature;BMP_pressure;BME280_temperature;BME280_humidity;BME280_pressure;Samples;Min_cycle;Max_cycle;Signal;HPM_P1;HPM_P2
2023/11/07 00:00:34;;;;;;;;;;;10.20;87.30;;;;;;5097792;28;19931;-65
2023/11/07 00:03:09;;;;;;;;;;;10.20;87.20;;;;;;5098916;28;20002;-66
2023/11/07 00:05:36;;;;;;;;;;;10.20;87.20;;;;;;5097722;28;20007;-66
2023/11/07 00:08:09;;;;;;;;;;;10.20;87.20;;;;;;5097376;27;19959;-65
2023/11/07 00:10:42;;;;;;;;;;;10.20;87.20;;;;;;5095616;28;20050;-65
2023/11/07 00:13:15;;;;;;;;;;;10.20;87.10;;;;;;5097714;28;19932;-64
2023/11/07 00:15:48;;;;;;;;;;;10.20;87.00;;;;;;5094952;28;20012;-65
2023/11/07 00:18:22;;;;;;;;;;;10.20;87.20;;;;;;5095784;28;19927;-64
2023/11/07 00:20:56;;;;;;;;;;;10.10;87.00;;;;;;5093172;28;20010;-66
2023/11/07 00:23:30;;;;;;;;;;;10.20;86.90;;;;;;5096185;28;19929;-65
2023/11/07 00:26:03;;;;;;;;;;;10.20;87.00;;;;;;5098197;28;19928;-64
2023/11/07 00:28:37;;;;;;;;;;;10.20;86.80;;;;;;5090688;28;20552;-65
2023/11/07 00:31:10;;;;;;;;;;;10.20;86.80;;;;;;5093452;28;19928;-65
2023/11/07 00:33:44;;;;;;;;;;;10.20;86.80;;;;;;5100453;28;20010;-65
2023/11/07 00:36:17;;;;;;;;;;;10.20;86.70;;;;;;5102717;28;19936;-65
2023/11/07 00:38:50;;;;;;;;;;;10.20;86.70;;;;;;5100347;28;20000;-73
2023/11/07 00:41:23;;;;;;;;;;;10.20;86.70;;;;;;5102322;28;19938;-73
2023/11/07 00:43:50;;;;;;;;;;;10.20;86.60;;;;;;5103594;28;19932;-72
2023/11/07 00:46:23;;;;;;;;;;;10.20;86.40;;;;;;5100267;28;20282;-71
2023/11/07 00:48:58;;;;;;;;;;;10.20;86.50;;;;;;5100063;28;19924;-73
2023/11/07 00:51:31;;;;;;;;;;;10.20;86.40;;;;;;5105598;28;20394;-73
2023/11/07 00:54:04;;;;;;;;;;;10.20;86.40;;;;;;5098843;28;20405;-73
2023/11/07 00:56:40;;;;;;;;;;;10.20;86.40;;;;;;5104107;28;20682;-72
2023/11/07 00:59:13;;;;;;;;;;;10.20;86.40;;;;;;5104024;28;19935;-73
2023/11/07 01:01:46;;;;;;;;;;;10.20;86.40;;;;;;5102187;28;19928;-71
2023/11/07 01:04:20;;;;;;;;;;;10.20;86.30;;;;;;5100121;28;19976;-74
2023/11/07 01:06:47;;;;;;;;;;;10.20;86.50;;;;;;5102861;28;19930;-70
2023/11/07 01:09:20;;;;;;;;;;;10.20;86.50;;;;;;5100159;28;19928;-70
2023/11/07 01:11:53;;;;;;;;;;;10.20;86.50;;;;;;5101368;28;19934;-73
2023/11/07 01:14:26;;;;;;;;;;;10.20;86.40;;;;;;5102769;28;19924;-72
2023/11/07 01:16:53;;;;;;;;;;;10.20;86.40;;;;;;5102491;28;19931;-72
2023/11/07 01:19:28;;;;;;;;;;;10.20;86.30;;;;;;5101831;27;19928;-73
2023/11/07 01:22:01;;;;;;;;;;;10.20;86.20;;;;;;5097359;28;19928;-74
2023/11/07 01:24:34;;;;;;;;;;;10.20;86.20;;;;;;5102131;28;19931;-73
2023/11/07 01:27:07;;;;;;;;;;;10.20;86.20;;;;;;5099887;27;19935;-72
2023/11/07 01:29:40;;;;;;;;;;;10.20;86.10;;;;;;5099651;28;20015;-72
2023/11/07 01:32:13;;;;;;;;;;;10.20;86.00;;;;;;5100630;27;19928;-72
2023/11/07 01:34:48;;;;;;;;;;;10.30;86.00;;;;;;5101464;28;19928;-72
2023/11/07 01:37:21;;;;;;;;;;;10.20;85.60;;;;;;5101697;28;19931;-73
2023/11/07 01:39:54;;;;;;;;;;;10.20;85.70;;;;;;5100631;28;19936;-72
2023/11/07 01:42:27;;;;;;;;;;;10.20;85.70;;;;;;5097480;28;19932;-73
2023/11/07 01:45:01;;;;;;;;;;;10.20;85.70;;;;;;5099755;28;19939;-73
2023/11/07 01:47:34;;;;;;;;;;;10.20;85.70;;;;;;5101359;28;20404;-73
2023/11/07 01:50:10;;;;;;;;;;;10.20;85.60;;;;;;5100416;28;20011;-74
2023/11/07 01:52:43;;;;;;;;;;;10.20;85.60;;;;;;5102215;28;19955;-73
2023/11/07 01:55:17;;;;;;;;;;;10.20;85.60;;;;;;5114097;27;19930;-73
2023/11/07 01:57:51;;;;;;;;;;;10.20;85.60;;;;;;5101184;28;19924;-73
2023/11/07 02:00:25;;;;;;;;;;;10.20;85.60;;;;;;5102746;28;20014;-74
2023/11/07 02:02:58;;;;;;;;;;;10.20;85.30;;;;;;5112977;27;20348;-74
2023/11/07 02:05:34;;;;;;;;;;;10.20;85.40;;;;;;5115107;27;19928;-74
2023/11/07 02:08:09;;;;;;;;;;;10.20;85.40;;;;;;5112823;27;19935;-73
2023/11/07 02:10:43;;;;;;;;;;;10.20;85.40;;;;;;5101099;28;19963;-74
2023/11/07 02:13:23;;;;;;;;;;;10.20;85.40;;;;;;5097540;28;19963;-76
2023/11/07 02:15:56;;;;;;;;;;;10.20;85.30;;;;;;5099486;28;19947;-73
2023/11/07 02:18:23;;;;;;;;;;;10.20;85.30;;;;;;5099170;27;19928;-75
2023/11/07 02:20:58;;;;;;;;;;;10.10;85.20;;;;;;5100792;28;19928;-74
2023/11/07 02:23:34;;;;;;;;;;;10.10;85.20;;;;;;5095524;28;19974;-74
2023/11/07 02:26:07;;;;;;;;;;;10.10;85.10;;;;;;5098040;28;19928;-76
2023/11/07 02:28:34;;;;;;;;;;;10.10;85.10;;;;;;5100879;28;19932;-74
2023/11/07 02:31:08;;;;;;;;;;;10.20;85.10;;;;;;5099977;28;20007;-74
2023/11/07 02:33:41;;;;;;;;;;;10.10;85.20;;;;;;5101156;28;19967;-75
2023/11/07 02:36:14;;;;;;;;;;;10.10;85.20;;;;;;5100369;27;22560;-73
2023/11/07 02:38:49;;;;;;;;;;;10.10;85.20;;;;;;5100571;28;19946;-74
2023/11/07 02:41:22;;;;;;;;;;;10.10;85.20;;;;;;5094827;28;19935;-74
2023/11/07 02:43:49;;;;;;;;;;;10.10;85.20;;;;;;5102026;28;19939;-74
2023/11/07 02:46:22;;;;;;;;;;;10.10;85.10;;;;;;5098449;28;20038;-76
2023/11/07 02:48:55;;;;;;;;;;;10.10;84.90;;;;;;5114059;27;19928;-74
2023/11/07 02:51:29;;;;;;;;;;;10.10;84.80;;;;;;5100594;28;20572;-73
2023/11/07 02:54:04;;;;;;;;;;;10.10;84.80;;;;;;5098173;28;19928;-74
2023/11/07 02:56:37;;;;;;;;;;;10.10;84.60;;;;;;5099798;28;19940;-75
2023/11/07 02:59:10;;;;;;;;;;;10.10;84.70;;;;;;5098644;28;23421;-68
2023/11/07 03:01:43;;;;;;;;;;;10.10;84.80;;;;;;5117261;27;19928;-68
2023/11/07 03:04:17;;;;;;;;;;;10.10;84.70;;;;;;5099156;28;19928;-68
2023/11/07 03:06:52;;;;;;;;;;;10.10;84.80;;;;;;5083759;28;19942;-68
2023/11/07 03:09:27;;;;;;;;;;;10.10;84.90;;;;;;5101664;28;19924;-68
2023/11/07 03:12:01;;;;;;;;;;;10.10;84.80;;;;;;5097427;28;19924;-68
2023/11/07 03:14:37;;;;;;;;;;;10.10;84.70;;;;;;5081619;28;20322;-68
2023/11/07 03:17:10;;;;;;;;;;;10.10;84.80;;;;;;5099181;28;19923;-67
2023/11/07 03:19:44;;;;;;;;;;;10.10;84.90;;;;;;5099963;28;19972;-67
2023/11/07 03:22:17;;;;;;;;;;;10.10;85.00;;;;;;5114970;27;19928;-69
2023/11/07 03:24:52;;;;;;;;;;;10.10;84.80;;;;;;5099252;28;19928;-67
2023/11/07 03:27:25;;;;;;;;;;;10.00;84.90;;;;;;5100231;28;19924;-69
2023/11/07 03:29:58;;;;;;;;;;;10.00;85.00;;;;;;5113202;27;19966;-68
2023/11/07 03:32:25;;;;;;;;;;;10.10;85.00;;;;;;5097822;28;19939;-67
2023/11/07 03:34:58;;;;;;;;;;;10.10;85.00;;;;;;5101049;28;20038;-68
2023/11/07 03:37:32;;;;;;;;;;;10.10;85.10;;;;;;5100743;28;19966;-69
2023/11/07 03:40:08;;;;;;;;;;;10.10;85.00;;;;;;5102236;28;19927;-67
2023/11/07 03:42:35;;;;;;;;;;;10.10;85.20;;;;;;5092629;28;19936;-68
2023/11/07 03:45:09;;;;;;;;;;;10.10;85.20;;;;;;5104433;28;20011;-69
2023/11/07 03:47:42;;;;;;;;;;;10.10;85.20;;;;;;5100946;28;19928;-69
2023/11/07 03:50:15;;;;;;;;;;;10.10;85.20;;;;;;5103386;28;19924;-68
2023/11/07 03:52:48;;;;;;;;;;;10.10;85.20;;;;;;5102159;28;19930;-68
2023/11/07 03:55:23;;;;;;;;;;;10.10;85.20;;;;;;5099548;28;19930;-68
2023/11/07 03:57:56;;;;;;;;;;;10.10;85.30;;;;;;5104378;28;19933;-69
2023/11/07 04:00:29;;;;;;;;;;;10.10;85.30;;;;;;5101368;27;19971;-68
2023/11/07 04:03:03;;;;;;;;;;;10.10;85.40;;;;;;5102405;28;19928;-68
2023/11/07 04:05:36;;;;;;;;;;;10.10;85.40;;;;;;5102221;28;19945;-67
2023/11/07 04:08:09;;;;;;;;;;;10.10;85.50;;;;;;5101747;28;19928;-72
2023/11/07 04:10:44;;;;;;;;;;;10.10;85.50;;;;;;5103196;28;20019;-71
2023/11/07 04:13:17;;;;;;;;;;;10.10;85.40;;;;;;5100188;28;19982;-71
2023/11/07 04:15:50;;;;;;;;;;;10.10;85.40;;;;;;5101514;28;19934;-74
2023/11/07 04:18:24;;;;;;;;;;;10.00;85.40;;;;;;5102283;28;19928;-72
2023/11/07 04:20:57;;;;;;;;;;;10.10;85.60;;;;;;5103564;28;19977;-72
2023/11/07 04:23:30;;;;;;;;;;;10.10;85.40;;;;;;5098916;28;19924;-72
2023/11/07 04:26:05;;;;;;;;;;;10.10;85.40;;;;;;5101585;28;19931;-73
2023/11/07 04:28:41;;;;;;;;;;;10.10;85.50;;;;;;5100220;28;19982;-73
2023/11/07 04:31:14;;;;;;;;;;;10.10;85.50;;;;;;5101509;28;19931;-72
2023/11/07 04:33:48;;;;;;;;;;;10.10;85.50;;;;;;5100279;28;20390;-72
2023/11/07 04:36:22;;;;;;;;;;;10.10;85.50;;;;;;5099865;28;19958;-72
2023/11/07 04:38:55;;;;;;;;;;;10.10;85.50;;;;;;5098088;28;19934;-73
2023/11/07 04:41:23;;;;;;;;;;;10.10;85.50;;;;;;5100001;28;19924;-72
2023/11/07 04:43:58;;;;;;;;;;;10.10;85.50;;;;;;5099517;28;19924;-73
2023/11/07 04:46:31;;;;;;;;;;;10.10;85.50;;;;;;5100511;28;19932;-73
2023/11/07 04:49:06;;;;;;;;;;;10.10;85.40;;;;;;5100037;28;20367;-74
2023/11/07 04:51:40;;;;;;;;;;;10.10;85.40;;;;;;5100981;28;19924;-73
2023/11/07 04:54:13;;;;;;;;;;;10.10;85.40;;;;;;5100154;28;19931;-73
2023/11/07 04:56:53;;;;;;;;;;;10.10;85.50;;;;;;5099543;28;19932;-73
2023/11/07 04:59:26;;;;;;;;;;;10.10;85.50;;;;;;5099276;28;19963;-73
2023/11/07 05:01:59;;;;;;;;;;;10.10;85.60;;;;;;5095609;28;19928;-73
2023/11/07 05:04:33;;;;;;;;;;;10.10;85.60;;;;;;5100160;28;19928;-73
2023/11/07 05:07:13;;;;;;;;;;;10.10;85.60;;;;;;5098906;28;19927;-74
2023/11/07 05:09:47;;;;;;;;;;;10.10;85.50;;;;;;5099096;28;19924;-74
2023/11/07 05:12:22;;;;;;;;;;;10.10;85.60;;;;;;5097463;28;20470;-74
2023/11/07 05:14:55;;;;;;;;;;;10.00;85.60;;;;;;5097780;28;19959;-73
2023/11/07 05:17:28;;;;;;;;;;;10.00;85.70;;;;;;5095819;28;19924;-73
2023/11/07 05:20:02;;;;;;;;;;;10.00;85.80;;;;;;5101188;28;19928;-69
2023/11/07 05:22:36;;;;;;;;;;;10.10;85.80;;;;;;5103637;28;19928;-69
2023/11/07 05:25:09;;;;;;;;;;;10.10;85.70;;;;;;5103820;27;19928;-69
2023/11/07 05:27:44;;;;;;;;;;;10.10;85.80;;;;;;5102860;28;19932;-68
2023/11/07 05:30:17;;;;;;;;;;;10.10;85.80;;;;;;5103509;28;19924;-70
2023/11/07 05:32:50;;;;;;;;;;;10.10;85.70;;;;;;5103294;28;19976;-69
2023/11/07 05:35:23;;;;;;;;;;;10.10;85.70;;;;;;5099616;28;19924;-68
2023/11/07 05:37:56;;;;;;;;;;;10.10;85.70;;;;;;5103366;28;19934;-69
2023/11/07 05:40:29;;;;;;;;;;;10.10;85.80;;;;;;5104396;28;21442;-69
2023/11/07 05:43:04;;;;;;;;;;;10.10;85.70;;;;;;5100280;28;20371;-69
2023/11/07 05:45:37;;;;;;;;;;;10.10;85.70;;;;;;5100984;28;19958;-69
2023/11/07 05:48:11;;;;;;;;;;;10.10;85.80;;;;;;5099483;28;20417;-69
2023/11/07 05:50:44;;;;;;;;;;;10.10;85.70;;;;;;5102584;27;19931;-69
2023/11/07 05:53:17;;;;;;;;;;;10.10;85.70;;;;;;5101117;27;20379;-69
2023/11/07 05:55:50;;;;;;;;;;;10.10;85.80;;;;;;5104247;28;20012;-69
2023/11/07 05:58:25;;;;;;;;;;;10.10;86.00;;;;;;5103771;28;19992;-69
2023/11/07 06:00:58;;;;;;;;;;;10.10;86.10;;;;;;5092055;28;20824;-69
2023/11/07 06:03:32;;;;;;;;;;;10.00;86.30;;;;;;5100017;28;20285;-69
2023/11/07 06:06:07;;;;;;;;;;;10.10;86.20;;;;;;5102127;27;20384;-70
2023/11/07 06:08:40;;;;;;;;;;;10.00;86.50;;;;;;5103288;27;19928;-68
2023/11/07 06:11:15;;;;;;;;;;;10.00;86.50;;;;;;5101023;28;20363;-69
2023/11/07 06:13:50;;;;;;;;;;;10.00;86.60;;;;;;5102530;28;20019;-68
2023/11/07 06:16:26;;;;;;;;;;;10.00;86.60;;;;;;5096822;27;19923;-69
2023/11/07 06:18:58;;;;;;;;;;;10.00;86.90;;;;;;5116343;27;19935;-69
2023/11/07 06:21:31;;;;;;;;;;;10.00;87.00;;;;;;5101971;28;19928;-69
2023/11/07 06:24:05;;;;;;;;;;;10.00;87.10;;;;;;5102580;28;19972;-68
2023/11/07 06:26:38;;;;;;;;;;;10.00;87.30;;;;;;5102654;28;19932;-69
2023/11/07 06:29:13;;;;;;;;;;;10.00;87.40;;;;;;5091819;28;20298;-61
2023/11/07 06:31:46;;;;;;;;;;;10.00;87.50;;;;;;5100908;28;19928;-62
2023/11/07 06:34:19;;;;;;;;;;;10.00;87.50;;;;;;5098186;28;20286;-61
2023/11/07 06:36:52;;;;;;;;;;;10.00;87.70;;;;;;5101284;28;20402;-60
2023/11/07 06:39:25;;;;;;;;;;;10.00;87.60;;;;;;5102459;28;20386;-60
2023/11/07 06:41:58;;;;;;;;;;;10.00;87.60;;;;;;5101732;28;20009;-59
2023/11/07 06:44:33;;;;;;;;;;;10.00;87.60;;;;;;5101324;28;19931;-62
2023/11/07 06:47:06;;;;;;;;;;;10.00;87.70;;;;;;5098927;28;19931;-61
2023/11/07 06:49:39;;;;;;;;;;;10.00;87.70;;;;;;5103354;28;19950;-60
2023/11/07 06:52:12;;;;;;;;;;;10.00;87.60;;;;;;5099728;28;20012;-61
2023/11/07 06:54:46;;;;;;;;;;;10.00;87.60;;;;;;5100302;28;19928;-61
2023/11/07 06:57:19;;;;;;;;;;;10.00;87.60;;;;;;5101209;28;19924;-62
2023/11/07 06:59:54;;;;;;;;;;;10.00;87.70;;;;;;5096467;28;19973;-62
2023/11/07 07:02:27;;;;;;;;;;;10.00;87.70;;;;;;5098378;28;19954;-62
2023/11/07 07:04:55;;;;;;;;;;;10.00;87.60;;;;;;5099360;28;19924;-61
2023/11/07 07:07:28;;;;;;;;;;;10.00;87.60;;;;;;5100207;27;19924;-61
2023/11/07 07:10:01;;;;;;;;;;;10.00;87.50;;;;;;5099429;28;19973;-61
2023/11/07 07:12:34;;;;;;;;;;;10.00;87.50;;;;;;5102468;28;19934;-60
2023/11/07 07:15:10;;;;;;;;;;;10.00;87.50;;;;;;5100517;28;20428;-61
2023/11/07 07:17:43;;;;;;;;;;;10.00;87.50;;;;;;5101107;28;19924;-60
2023/11/07 07:20:23;;;;;;;;;;;10.00;87.40;;;;;;5097354;27;19930;-61
2023/11/07 07:22:56;;;;;;;;;;;10.00;87.40;;;;;;5099487;28;19923;-61
2023/11/07 07:25:29;;;;;;;;;;;10.00;87.50;;;;;;5099660;28;19935;-60
2023/11/07 07:27:56;;;;;;;;;;;10.00;87.50;;;;;;5100375;28;19930;-61
2023/11/07 07:30:32;;;;;;;;;;;10.00;87.50;;;;;;5101432;27;20433;-61
2023/11/07 07:33:09;;;;;;;;;;;10.00;87.50;;;;;;5102059;27;19924;-60
2023/11/07 07:35:45;;;;;;;;;;;10.00;87.50;;;;;;5114502;27;19931;-60
2023/11/07 07:38:18;;;;;;;;;;;10.00;87.50;;;;;;5097517;28;19938;-66
2023/11/07 07:40:45;;;;;;;;;;;10.00;87.40;;;;;;5100655;28;20386;-66
2023/11/07 07:43:19;;;;;;;;;;;10.00;87.50;;;;;;5099149;28;19983;-67
2023/11/07 07:45:55;;;;;;;;;;;10.00;87.60;;;;;;5099095;28;19924;-65
2023/11/07 07:48:29;;;;;;;;;;;10.10;87.50;;;;;;5099251;28;20007;-66
2023/11/07 07:51:06;;;;;;;;;;;10.00;87.60;;;;;;5101505;27;20379;-65
2023/11/07 07:53:39;;;;;;;;;;;10.00;87.40;;;;;;5100397;28;19924;-66
2023/11/07 07:56:13;;;;;;;;;;;10.00;87.30;;;;;;5099432;28;19939;-67
2023/11/07 07:58:47;;;;;;;;;;;10.00;87.40;;;;;;5100901;28;20031;-66
2023/11/07 08:01:22;;;;;;;;;;;10.00;87.40;;;;;;5101573;28;19930;-66
2023/11/07 08:03:55;;;;;;;;;;;10.00;87.50;;;;;;5099238;28;19980;-65
2023/11/07 08:06:30;;;;;;;;;;;10.00;87.40;;;;;;5100371;28;19931;-67
2023/11/07 08:09:04;;;;;;;;;;;10.00;87.40;;;;;;5099363;28;19924;-65
2023/11/07 08:11:36;;;;;;;;;;;10.00;87.30;;;;;;5098960;28;19959;-67
2023/11/07 08:14:11;;;;;;;;;;;10.10;87.30;;;;;;5098625;28;20027;-66
2023/11/07 08:16:46;;;;;;;;;;;10.10;87.30;;;;;;5100283;28;19924;-65
2023/11/07 08:19:21;;;;;;;;;;;10.10;87.20;;;;;;5097120;28;19934;-67
2023/11/07 08:21:49;;;;;;;;;;;10.10;87.30;;;;;;5099278;28;20484;-66
2023/11/07 08:24:22;;;;;;;;;;;10.10;87.30;;;;;;5099696;28;19967;-66
2023/11/07 08:26:55;;;;;;;;;;;10.10;87.30;;;;;;5099286;28;19927;-67
2023/11/07 08:29:28;;;;;;;;;;;10.10;87.30;;;;;;5096737;28;19928;-67
2023/11/07 08:32:04;;;;;;;;;;;10.10;87.30;;;;;;5100483;28;19928;-67
2023/11/07 08:34:37;;;;;;;;;;;10.10;87.50;;;;;;5097187;28;20383;-66
2023/11/07 08:37:11;;;;;;;;;;;10.10;87.40;;;;;;5100168;28;20007;-66
2023/11/07 08:39:43;;;;;;;;;;;10.10;87.40;;;;;;5099832;28;19927;-66
2023/11/07 08:42:16;;;;;;;;;;;10.10;87.30;;;;;;5100814;28;19924;-65
2023/11/07 08:44:50;;;;;;;;;;;10.10;87.30;;;;;;5099460;28;19928;-66
2023/11/07 08:47:25;;;;;;;;;;;10.10;87.20;;;;;;5099275;28;19931;-66
2023/11/07 08:49:58;;;;;;;;;;;10.10;87.20;;;;;;5099259;28;20406;-61
2023/11/07 08:52:38;;;;;;;;;;;10.10;87.20;;;;;;5099462;28;20037;-63
2023/11/07 08:55:13;;;;;;;;;;;10.10;87.20;;;;;;5102004;28;19974;-61
2023/11/07 08:57:48;;;;;;;;;;;10.20;87.10;;;;;;5105313;27;19927;-60
2023/11/07 09:00:22;;;;;;;;;;;10.20;87.10;;;;;;5102574;27;20336;-62
2023/11/07 09:02:57;;;;;;;;;;;10.20;87.10;;;;;;5100687;28;19927;-61
2023/11/07 09:05:31;;;;;;;;;;;10.30;87.00;;;;;;5104459;28;19931;-61
2023/11/07 09:08:04;;;;;;;;;;;10.30;86.90;;;;;;5101075;28;19930;-60
2023/11/07 09:10:37;;;;;;;;;;;10.40;87.00;;;;;;5103637;28;19934;-60
2023/11/07 09:13:11;;;;;;;;;;;10.40;86.90;;;;;;5101215;28;19928;-63
2023/11/07 09:15:45;;;;;;;;;;;10.40;86.80;;;;;;5104266;28;19924;-61
2023/11/07 09:18:20;;;;;;;;;;;10.40;86.90;;;;;;5102096;28;19928;-62
2023/11/07 09:20:54;;;;;;;;;;;10.50;86.80;;;;;;5099980;28;19998;-60
2023/11/07 09:23:27;;;;;;;;;;;10.40;86.70;;;;;;5102925;28;19931;-60
2023/11/07 09:25:54;;;;;;;;;;;10.40;86.70;;;;;;5104117;28;19976;-61
2023/11/07 09:28:26;;;;;;;;;;;10.50;86.60;;;;;;5101633;27;20398;-61
2023/11/07 09:30:53;;;;;;;;;;;10.40;86.40;;;;;;5103435;28;20015;-61
2023/11/07 09:33:28;;;;;;;;;;;10.50;86.40;;;;;;5102998;28;19923;-60
2023/11/07 09:36:01;;;;;;;;;;;10.50;86.30;;;;;;5102265;28;19939;-61
2023/11/07 09:38:34;;;;;;;;;;;10.50;86.20;;;;;;5102821;28;19978;-61
2023/11/07 09:41:08;;;;;;;;;;;10.50;86.00;;;;;;5102609;28;19978;-61
2023/11/07 09:43:42;;;;;;;;;;;10.40;86.10;;;;;;5100654;28;19924;-63
2023/11/07 09:46:16;;;;;;;;;;;10.40;86.10;;;;;;5101680;28;19924;-61
2023/11/07 09:48:51;;;;;;;;;;;10.40;86.00;;;;;;5101493;28;19932;-62
2023/11/07 09:51:25;;;;;;;;;;;10.50;86.20;;;;;;5103151;28;20014;-61
2023/11/07 09:53:59;;;;;;;;;;;10.40;86.10;;;;;;5103383;28;20397;-61
2023/11/07 09:56:38;;;;;;;;;;;10.50;86.20;;;;;;5103711;28;19931;-60
2023/11/07 09:59:15;;;;;;;;;;;10.50;86.00;;;;;;5101961;28;20015;-65
2023/11/07 10:01:49;;;;;;;;;;;10.50;85.90;;;;;;5103817;28;19950;-67
2023/11/07 10:04:24;;;;;;;;;;;10.50;85.80;;;;;;5099737;28;19935;-66
2023/11/07 10:06:58;;;;;;;;;;;10.50;85.80;;;;;;5102775;28;19934;-67
2023/11/07 10:09:32;;;;;;;;;;;10.50;85.70;;;;;;5102321;28;19936;-65
2023/11/07 10:12:13;;;;;;;;;;;10.60;85.60;;;;;;5100114;28;20380;-66
2023/11/07 10:14:50;;;;;;;;;;;10.60;85.60;;;;;;5102490;28;19954;-66
2023/11/07 10:17:25;;;;;;;;;;;10.60;85.50;;;;;;5103491;28;20764;-67
2023/11/07 10:20:07;;;;;;;;;;;10.70;85.50;;;;;;5100767;28;19931;-66
2023/11/07 10:22:44;;;;;;;;;;;10.70;85.40;;;;;;5103416;28;19971;-66
2023/11/07 10:25:28;;;;;;;;;;;10.70;85.30;;;;;;5102980;28;20032;-67
2023/11/07 10:28:09;;;;;;;;;;;10.70;85.30;;;;;;5103823;28;19973;-67
2023/11/07 10:30:44;;;;;;;;;;;10.70;85.30;;;;;;5101990;28;19924;-66
2023/11/07 10:33:24;;;;;;;;;;;10.80;85.20;;;;;;5103576;28;20602;-66
2023/11/07 10:36:00;;;;;;;;;;;10.90;85.10;;;;;;5100703;27;19931;-66
2023/11/07 10:38:38;;;;;;;;;;;11.00;85.00;;;;;;5100984;28;19928;-66
2023/11/07 10:41:25;;;;;;;;;;;11.10;85.10;;;;;;5099305;27;19978;-65
2023/11/07 10:43:58;;;;;;;;;;;10.90;84.90;;;;;;5101098;28;20011;-67
2023/11/07 10:46:26;;;;;;;;;;;10.90;84.90;;;;;;5102487;28;19924;-65
2023/11/07 10:49:01;;;;;;;;;;;10.90;84.80;;;;;;5098598;28;19928;-67
2023/11/07 10:51:36;;;;;;;;;;;11.00;84.80;;;;;;5102797;28;19923;-67
2023/11/07 10:54:10;;;;;;;;;;;11.00;84.70;;;;;;5101546;28;19931;-65
2023/11/07 10:56:44;;;;;;;;;;;11.00;84.50;;;;;;5102779;28;19978;-67
2023/11/07 10:59:18;;;;;;;;;;;11.00;84.60;;;;;;5099407;28;20029;-66
2023/11/07 11:01:52;;;;;;;;;;;10.90;84.50;;;;;;5101966;28;19924;-67
2023/11/07 11:04:26;;;;;;;;;;;10.90;84.60;;;;;;5099264;28;20291;-69
2023/11/07 11:07:09;;;;;;;;;;;10.90;84.80;;;;;;5097982;28;19928;-67
2023/11/07 11:09:42;;;;;;;;;;;10.80;85.00;;;;;;5101791;28;19977;-68
2023/11/07 11:12:18;;;;;;;;;;;10.80;85.20;;;;;;5101077;28;20386;-67
2023/11/07 11:14:52;;;;;;;;;;;10.80;85.30;;;;;;5100700;27;20039;-67
2023/11/07 11:17:31;;;;;;;;;;;10.80;85.50;;;;;;5098257;28;19963;-66
2023/11/07 11:20:11;;;;;;;;;;;10.70;85.70;;;;;;5100732;28;19924;-69
2023/11/07 11:22:48;;;;;;;;;;;10.70;85.90;;;;;;5098326;27;19928;-69
2023/11/07 11:25:26;;;;;;;;;;;10.70;86.00;;;;;;5101312;28;19969;-68
2023/11/07 11:28:00;;;;;;;;;;;10.70;86.40;;;;;;5101316;28;20371;-68
2023/11/07 11:30:34;;;;;;;;;;;10.70;86.30;;;;;;5101003;28;19927;-69
2023/11/07 11:33:08;;;;;;;;;;;10.70;86.50;;;;;;5100948;28;19924;-68
2023/11/07 11:35:44;;;;;;;;;;;10.70;86.50;;;;;;5101061;28;20011;-69
2023/11/07 11:38:19;;;;;;;;;;;10.70;86.70;;;;;;5100850;28;19927;-70
2023/11/07 11:40:54;;;;;;;;;;;10.70;86.90;;;;;;5095625;28;19924;-67
2023/11/07 11:43:28;;;;;;;;;;;10.70;87.00;;;;;;5101462;27;19931;-69
2023/11/07 11:46:18;;;;;;;;;;;10.70;87.10;;;;;;5101509;28;19954;-68
2023/11/07 11:49:07;;;;;;;;;;;10.70;87.20;;;;;;5102459;28;19963;-69
2023/11/07 11:51:42;;;;;;;;;;;10.60;87.30;;;;;;5097486;28;20014;-69
2023/11/07 11:54:37;;;;;;;;;;;10.60;87.40;;;;;;5100123;28;20013;-70
2023/11/07 11:57:11;;;;;;;;;;;10.60;87.50;;;;;;5099762;28;20098;-69
2023/11/07 12:00:01;;;;;;;;;;;10.60;87.70;;;;;;5100208;28;19999;-69
2023/11/07 12:02:39;;;;;;;;;;;10.60;88.00;;;;;;5100986;28;19924;-68
2023/11/07 12:05:16;;;;;;;;;;;10.70;88.00;;;;;;5099805;28;19947;-69
2023/11/07 12:07:50;;;;;;;;;;;10.60;88.10;;;;;;5098051;28;19924;-68
2023/11/07 12:10:27;;;;;;;;;;;10.70;88.10;;;;;;5099532;28;19923;-68
2023/11/07 12:13:01;;;;;;;;;;;10.70;88.20;;;;;;5100430;28;19950;-69
2023/11/07 12:15:34;;;;;;;;;;;10.70;88.30;;;;;;5099437;28;19953;-69
2023/11/07 12:18:07;;;;;;;;;;;10.70;88.50;;;;;;5097064;28;19924;-69
2023/11/07 12:20:40;;;;;;;;;;;10.70;88.30;;;;;;5101045;28;20363;-70
2023/11/07 12:23:15;;;;;;;;;;;10.80;88.10;;;;;;5095626;28;20429;-69
2023/11/07 12:25:52;;;;;;;;;;;10.70;88.40;;;;;;5099804;28;20600;-68
2023/11/07 12:28:26;;;;;;;;;;;10.70;88.50;;;;;;5101750;28;19931;-71
2023/11/07 12:30:58;;;;;;;;;;;10.70;88.60;;;;;;5101540;28;19924;-73
2023/11/07 12:33:40;;;;;;;;;;;10.70;88.50;;;;;;5103951;28;20416;-74
2023/11/07 12:36:13;;;;;;;;;;;10.70;88.70;;;;;;5102401;28;19928;-72
2023/11/07 12:38:41;;;;;;;;;;;10.70;88.80;;;;;;5103576;27;19924;-72
2023/11/07 12:41:16;;;;;;;;;;;10.80;88.70;;;;;;5100943;28;19932;-72
2023/11/07 12:43:50;;;;;;;;;;;10.80;88.70;;;;;;5104642;27;19947;-72
2023/11/07 12:46:23;;;;;;;;;;;10.90;88.70;;;;;;5101920;28;19924;-73
2023/11/07 12:48:57;;;;;;;;;;;10.90;88.50;;;;;;5102403;27;19932;-72
2023/11/07 12:51:31;;;;;;;;;;;10.90;88.40;;;;;;5100077;28;19932;-73
2023/11/07 12:54:05;;;;;;;;;;;10.90;88.50;;;;;;5101008;28;19924;-73
2023/11/07 12:56:42;;;;;;;;;;;10.90;88.50;;;;;;5103473;28;20430;-73
2023/11/07 12:59:17;;;;;;;;;;;10.90;88.30;;;;;;5099286;28;20025;-73
2023/11/07 13:01:52;;;;;;;;;;;10.90;88.40;;;;;;5102220;28;19924;-73
2023/11/07 13:04:27;;;;;;;;;;;10.90;88.20;;;;;;5100819;28;19971;-74
2023/11/07 13:07:01;;;;;;;;;;;10.90;88.20;;;;;;5102865;28;20272;-72
2023/11/07 13:09:37;;;;;;;;;;;10.90;88.10;;;;;;5100291;28;19932;-73
2023/11/07 13:12:11;;;;;;;;;;;10.90;88.00;;;;;;5103510;27;20375;-72
2023/11/07 13:14:47;;;;;;;;;;;11.00;87.90;;;;;;5100496;28;20002;-72
2023/11/07 13:17:21;;;;;;;;;;;10.90;87.70;;;;;;5102830;28;19924;-73
2023/11/07 13:19:55;;;;;;;;;;;11.00;87.80;;;;;;5097586;27;20032;-72
2023/11/07 13:22:28;;;;;;;;;;;11.00;87.90;;;;;;5102001;28;19928;-71
2023/11/07 13:25:01;;;;;;;;;;;11.00;87.90;;;;;;5087012;28;19947;-72
2023/11/07 13:27:43;;;;;;;;;;;11.00;87.70;;;;;;5098166;28;19924;-73
2023/11/07 13:30:18;;;;;;;;;;;11.00;87.70;;;;;;5097720;28;19963;-72
2023/11/07 13:32:52;;;;;;;;;;;11.00;87.80;;;;;;5102249;28;19930;-73
2023/11/07 13:35:25;;;;;;;;;;;11.00;87.80;;;;;;5104174;28;19928;-73
2023/11/07 13:37:59;;;;;;;;;;;11.00;87.90;;;;;;5103181;28;19924;-65
2023/11/07 13:40:33;;;;;;;;;;;11.00;87.70;;;;;;5099915;28;19932;-66
2023/11/07 13:43:01;;;;;;;;;;;11.10;87.50;;;;;;5102053;28;19924;-65
2023/11/07 13:45:34;;;;;;;;;;;11.10;87.50;;;;;;5101736;28;19932;-66
2023/11/07 13:48:07;;;;;;;;;;;11.10;87.50;;;;;;5100180;28;19924;-65
2023/11/07 13:50:40;;;;;;;;;;;11.00;87.40;;;;;;5101814;28;19923;-65
2023/11/07 13:53:13;;;;;;;;;;;11.00;87.50;;;;;;5094849;28;19935;-66
2023/11/07 13:55:46;;;;;;;;;;;11.00;87.50;;;;;;5102265;28;19931;-66
2023/11/07 13:58:20;;;;;;;;;;;11.00;87.50;;;;;;5099777;28;19924;-67
2023/11/07 14:00:56;;;;;;;;;;;10.90;87.40;;;;;;5099012;28;19981;-65
2023/11/07 14:03:30;;;;;;;;;;;10.90;87.50;;;;;;5099927;28;19931;-66
2023/11/07 14:06:04;;;;;;;;;;;10.90;87.70;;;;;;5096821;28;19924;-66
2023/11/07 14:08:31;;;;;;;;;;;10.90;87.80;;;;;;5094660;28;19932;-66
2023/11/07 14:11:06;;;;;;;;;;;10.90;88.00;;;;;;5098340;28;19924;-66
2023/11/07 14:13:41;;;;;;;;;;;10.90;88.10;;;;;;5097684;28;19967;-67
2023/11/07 14:16:08;;;;;;;;;;;10.90;88.20;;;;;;5099952;28;19946;-65
2023/11/07 14:18:42;;;;;;;;;;;11.00;88.10;;;;;;5101515;28;19969;-65
2023/11/07 14:21:16;;;;;;;;;;;11.00;88.20;;;;;;5099835;28;19928;-66
2023/11/07 14:23:50;;;;;;;;;;;11.10;88.20;;;;;;5101316;28;19927;-66
2023/11/07 14:26:24;;;;;;;;;;;11.00;88.30;;;;;;5101170;28;19982;-66
2023/11/07 14:28:59;;;;;;;;;;;11.00;88.10;;;;;;5097810;28;20010;-65
2023/11/07 14:31:33;;;;;;;;;;;11.00;88.10;;;;;;5101057;28;19928;-67
2023/11/07 14:34:08;;;;;;;;;;;11.00;88.00;;;;;;5099296;28;20387;-67
2023/11/07 14:36:42;;;;;;;;;;;11.00;88.00;;;;;;5101337;28;20378;-65
2023/11/07 14:39:16;;;;;;;;;;;11.00;87.90;;;;;;5101421;28;19927;-66
2023/11/07 14:41:50;;;;;;;;;;;10.90;88.00;;;;;;5102263;28;19923;-66
2023/11/07 14:44:18;;;;;;;;;;;10.90;87.90;;;;;;5101483;28;19931;-65
2023/11/07 14:46:58;;;;;;;;;;;10.90;87.90;;;;;;5101425;28;19974;-66
2023/11/07 14:49:32;;;;;;;;;;;10.90;87.90;;;;;;5103514;28;19928;-60
2023/11/07 14:52:07;;;;;;;;;;;10.80;87.80;;;;;;5101518;28;19931;-61
2023/11/07 14:54:40;;;;;;;;;;;10.80;87.70;;;;;;5102103;28;20023;-61